sensor_id;sensor_type;location;lat;lon;timestamp;pressure;altitude;pressure_sealevel;temperature;humidity
61359;BME280;47228;46.762;23.598;2022-11-18T00:01:20;95924.27;;;6.69;86.76
61359;BME280;47228;46.762;23.598;2022-11-18T00:03:49;95918.14;;;6.69;86.75
61359;BME280;47228;46.762;23.598;2022-11-18T00:06:20;95926.07;;;6.68;86.72
61359;BME280;47228;46.762;23.598;2022-11-18T00:08:50;95924.21;;;6.67;86.81
61359;BME280;47228;46.762;23.598;2022-11-18T00:11:23;95918.34;;;6.69;86.82
61359;BME280;47228;46.762;23.598;2022-11-18T00:14:12;95921.79;;;6.70;86.72
61359;BME280;47228;46.762;23.598;2022-11-18T00:17:02;95926.21;;;6.64;86.11
61359;BME280;47228;46.762;23.598;2022-11-18T00:19:36;95928.59;;;6.58;86.44
61359;BME280;47228;46.762;23.598;2022-11-18T00:22:06;95927.73;;;6.55;86.75
61359;BME280;47228;46.762;23.598;2022-11-18T00:24:34;95918.48;;;6.52;86.91
61359;BME280;47228;46.762;23.598;2022-11-18T00:27:02;95919.88;;;6.53;87.18
61359;BME280;47228;46.762;23.598;2022-11-18T00:29:30;95914.52;;;6.54;87.16
61359;BME280;47228;46.762;23.598;2022-11-18T00:31:58;95913.02;;;6.57;87.35
61359;BME280;47228;46.762;23.598;2022-11-18T00:34:26;95913.75;;;6.59;86.99
61359;BME280;47228;46.762;23.598;2022-11-18T00:36:54;95920.05;;;6.59;87.16
61359;BME280;47228;46.762;23.598;2022-11-18T00:39:22;95912.11;;;6.61;87.06
61359;BME280;47228;46.762;23.598;2022-11-18T00:41:50;95899.65;;;6.62;87.15
61359;BME280;47228;46.762;23.598;2022-11-18T00:44:36;95891.45;;;6.63;87.16
61359;BME280;47228;46.762;23.598;2022-11-18T00:47:04;95889.53;;;6.62;87.04
61359;BME280;47228;46.762;23.598;2022-11-18T00:49:32;95890.23;;;6.63;86.99
61359;BME280;47228;46.762;23.598;2022-11-18T00:52:00;95888.23;;;6.64;87.06
61359;BME280;47228;46.762;23.598;2022-11-18T00:54:28;95881.02;;;6.65;86.87
61359;BME280;47228;46.762;23.598;2022-11-18T00:56:56;95879.78;;;6.63;86.84
61359;BME280;47228;46.762;23.598;2022-11-18T00:59:24;95885.32;;;6.61;86.99
61359;BME280;47228;46.762;23.598;2022-11-18T01:01:52;95888.59;;;6.59;86.92
61359;BME280;47228;46.762;23.598;2022-11-18T01:04:21;95884.29;;;6.58;87.00
61359;BME280;47228;46.762;23.598;2022-11-18T01:06:49;95879.05;;;6.59;87.15
61359;BME280;47228;46.762;23.598;2022-11-18T01:09:17;95881.17;;;6.62;87.46
61359;BME280;47228;46.762;23.598;2022-11-18T01:11:45;95879.83;;;6.63;87.10
61359;BME280;47228;46.762;23.598;2022-11-18T01:14:32;95875.83;;;6.59;87.10
61359;BME280;47228;46.762;23.598;2022-11-18T01:17:00;95878.15;;;6.58;87.03
61359;BME280;47228;46.762;23.598;2022-11-18T01:19:28;95874.59;;;6.58;87.45
61359;BME280;47228;46.762;23.598;2022-11-18T01:21:56;95872.95;;;6.61;87.60
61359;BME280;47228;46.762;23.598;2022-11-18T01:24:30;95869.55;;;6.64;87.40
61359;BME280;47228;46.762;23.598;2022-11-18T01:27:02;95868.30;;;6.65;86.92
61359;BME280;47228;46.762;23.598;2022-11-18T01:29:30;95864.98;;;6.62;86.92
61359;BME280;47228;46.762;23.598;2022-11-18T01:31:58;95862.27;;;6.61;87.31
61359;BME280;47228;46.762;23.598;2022-11-18T01:34:46;95857.77;;;6.61;87.16
61359;BME280;47228;46.762;23.598;2022-11-18T01:37:14;95861.14;;;6.60;87.17
61359;BME280;47228;46.762;23.598;2022-11-18T01:39:42;95860.29;;;6.60;87.43
61359;BME280;47228;46.762;23.598;2022-11-18T01:42:13;95856.71;;;6.61;87.27
61359;BME280;47228;46.762;23.598;2022-11-18T01:47:28;95848.84;;;6.59;87.52
61359;BME280;47228;46.762;23.598;2022-11-18T01:49:58;95844.91;;;6.59;87.69
61359;BME280;47228;46.762;23.598;2022-11-18T01:52:28;95837.88;;;6.61;87.80
61359;BME280;47228;46.762;23.598;2022-11-18T01:54:58;95836.44;;;6.63;87.83
61359;BME280;47228;46.762;23.598;2022-11-18T01:57:29;95831.80;;;6.64;87.58
61359;BME280;47228;46.762;23.598;2022-11-18T02:00:01;95834.21;;;6.62;87.50
61359;BME280;47228;46.762;23.598;2022-11-18T02:02:32;95837.28;;;6.60;87.63
61359;BME280;47228;46.762;23.598;2022-11-18T02:05:04;95836.46;;;6.61;87.80
61359;BME280;47228;46.762;23.598;2022-11-18T02:07:35;95834.71;;;6.61;87.81
61359;BME280;47228;46.762;23.598;2022-11-18T02:10:05;95834.17;;;6.62;87.85
61359;BME280;47228;46.762;23.598;2022-11-18T02:12:34;95837.92;;;6.64;87.77
61359;BME280;47228;46.762;23.598;2022-11-18T02:15:03;95839.87;;;6.65;87.91
61359;BME280;47228;46.762;23.598;2022-11-18T02:18:01;95842.30;;;6.67;87.94
61359;BME280;47228;46.762;23.598;2022-11-18T02:20:38;95840.32;;;6.70;87.77
61359;BME280;47228;46.762;23.598;2022-11-18T02:30:20;95830.75;;;6.64;87.40
61359;BME280;47228;46.762;23.598;2022-11-18T02:33:07;95827.41;;;6.60;87.36
61359;BME280;47228;46.762;23.598;2022-11-18T02:35:43;95820.11;;;6.54;87.29
61359;BME280;47228;46.762;23.598;2022-11-18T02:38:27;95821.58;;;6.49;87.32
61359;BME280;47228;46.762;23.598;2022-11-18T02:41:01;95825.85;;;6.47;87.89
61359;BME280;47228;46.762;23.598;2022-11-18T02:43:33;95826.69;;;6.49;88.22
61359;BME280;47228;46.762;23.598;2022-11-18T02:46:14;95826.17;;;6.52;88.29
61359;BME280;47228;46.762;23.598;2022-11-18T02:48:47;95832.48;;;6.55;88.10
61359;BME280;47228;46.762;23.598;2022-11-18T02:51:20;95840.58;;;6.57;88.13
61359;BME280;47228;46.762;23.598;2022-11-18T02:53:51;95840.64;;;6.60;87.88
61359;BME280;47228;46.762;23.598;2022-11-18T02:56:20;95835.48;;;6.60;87.79
61359;BME280;47228;46.762;23.598;2022-11-18T02:58:49;95829.91;;;6.57;87.42
61359;BME280;47228;46.762;23.598;2022-11-18T03:01:20;95824.28;;;6.55;87.56
61359;BME280;47228;46.762;23.598;2022-11-18T03:03:49;95820.65;;;6.53;87.69
61359;BME280;47228;46.762;23.598;2022-11-18T03:06:34;95819.03;;;6.52;87.84
61359;BME280;47228;46.762;23.598;2022-11-18T03:20:14;95833.81;;;6.67;88.40
61359;BME280;47228;46.762;23.598;2022-11-18T03:30:55;95845.94;;;6.63;87.70
61359;BME280;47228;46.762;23.598;2022-11-18T03:33:31;95847.77;;;6.63;87.91
61359;BME280;47228;46.762;23.598;2022-11-18T03:36:04;95842.59;;;6.59;87.48
61359;BME280;47228;46.762;23.598;2022-11-18T03:38:37;95835.70;;;6.58;87.60
61359;BME280;47228;46.762;23.598;2022-11-18T03:41:08;95831.89;;;6.59;87.76
61359;BME280;47228;46.762;23.598;2022-11-18T03:43:46;95833.46;;;6.61;87.59
61359;BME280;47228;46.762;23.598;2022-11-18T03:46:20;95832.61;;;6.59;87.34
61359;BME280;47228;46.762;23.598;2022-11-18T03:48:50;95829.83;;;6.58;87.66
61359;BME280;47228;46.762;23.598;2022-11-18T03:51:23;95822.80;;;6.57;87.89
61359;BME280;47228;46.762;23.598;2022-11-18T03:54:04;95819.73;;;6.57;87.70
61359;BME280;47228;46.762;23.598;2022-11-18T03:56:40;95825.01;;;6.57;87.67
61359;BME280;47228;46.762;23.598;2022-11-18T04:02:02;95817.58;;;6.57;87.97
61359;BME280;47228;46.762;23.598;2022-11-18T04:04:33;95814.46;;;6.56;87.49
61359;BME280;47228;46.762;23.598;2022-11-18T04:07:08;95814.05;;;6.51;87.22
61359;BME280;47228;46.762;23.598;2022-11-18T04:09:44;95810.63;;;6.48;87.24
61359;BME280;47228;46.762;23.598;2022-11-18T04:12:17;95813.69;;;6.45;87.42
61359;BME280;47228;46.762;23.598;2022-11-18T04:14:47;95809.23;;;6.44;87.85
61359;BME280;47228;46.762;23.598;2022-11-18T04:17:21;95801.36;;;6.45;87.80
61359;BME280;47228;46.762;23.598;2022-11-18T04:19:49;95803.06;;;6.44;87.75
61359;BME280;47228;46.762;23.598;2022-11-18T04:22:17;95800.85;;;6.42;87.55
61359;BME280;47228;46.762;23.598;2022-11-18T04:24:46;95785.48;;;6.41;87.66
61359;BME280;47228;46.762;23.598;2022-11-18T04:27:14;95771.39;;;6.43;87.86
61359;BME280;47228;46.762;23.598;2022-11-18T04:29:42;95765.16;;;6.45;87.85
61359;BME280;47228;46.762;23.598;2022-11-18T04:32:10;95759.21;;;6.43;87.27
61359;BME280;47228;46.762;23.598;2022-11-18T04:34:38;95760.23;;;6.39;86.94
61359;BME280;47228;46.762;23.598;2022-11-18T04:37:06;95757.81;;;6.34;86.91
61359;BME280;47228;46.762;23.598;2022-11-18T04:39:34;95754.33;;;6.30;86.95
61359;BME280;47228;46.762;23.598;2022-11-18T04:42:02;95752.77;;;6.26;86.76
61359;BME280;47228;46.762;23.598;2022-11-18T04:44:31;95749.10;;;6.24;86.88
61359;BME280;47228;46.762;23.598;2022-11-18T04:47:02;95744.70;;;6.22;87.25
61359;BME280;47228;46.762;23.598;2022-11-18T04:49:31;95739.55;;;6.21;87.27
61359;BME280;47228;46.762;23.598;2022-11-18T04:52:00;95735.35;;;6.20;87.43
61359;BME280;47228;46.762;23.598;2022-11-18T04:54:28;95736.59;;;6.16;87.35
61359;BME280;47228;46.762;23.598;2022-11-18T04:56:56;95735.69;;;6.13;87.42
61359;BME280;47228;46.762;23.598;2022-11-18T04:59:26;95742.98;;;6.08;87.37
61359;BME280;47228;46.762;23.598;2022-11-18T05:01:56;95761.38;;;6.02;87.38
61359;BME280;47228;46.762;23.598;2022-11-18T05:04:26;95763.88;;;5.98;87.62
61359;BME280;47228;46.762;23.598;2022-11-18T05:06:55;95756.16;;;5.92;87.42
61359;BME280;47228;46.762;23.598;2022-11-18T05:09:23;95761.90;;;5.86;87.67
61359;BME280;47228;46.762;23.598;2022-11-18T05:11:59;95768.98;;;5.83;88.17
61359;BME280;47228;46.762;23.598;2022-11-18T05:14:46;95772.73;;;5.80;88.14
61359;BME280;47228;46.762;23.598;2022-11-18T05:17:18;95773.45;;;5.75;88.01
61359;BME280;47228;46.762;23.598;2022-11-18T05:19:46;95777.48;;;5.73;88.57
61359;BME280;47228;46.762;23.598;2022-11-18T05:22:15;95780.42;;;5.73;89.02
61359;BME280;47228;46.762;23.598;2022-11-18T05:24:45;95783.98;;;5.74;89.16
61359;BME280;47228;46.762;23.598;2022-11-18T05:27:14;95786.89;;;5.75;88.99
61359;BME280;47228;46.762;23.598;2022-11-18T05:29:42;95789.22;;;5.75;88.66
61359;BME280;47228;46.762;23.598;2022-11-18T05:32:10;95790.70;;;5.76;88.72
61359;BME280;47228;46.762;23.598;2022-11-18T05:34:42;95791.73;;;5.76;88.30
61359;BME280;47228;46.762;23.598;2022-11-18T05:37:10;95785.75;;;5.73;88.07
61359;BME280;47228;46.762;23.598;2022-11-18T05:39:38;95778.96;;;5.67;88.50
61359;BME280;47228;46.762;23.598;2022-11-18T05:42:06;95784.77;;;5.67;88.88
61359;BME280;47228;46.762;23.598;2022-11-18T05:44:53;95785.30;;;5.64;88.58
61359;BME280;47228;46.762;23.598;2022-11-18T05:47:25;95783.23;;;5.64;88.79
61359;BME280;47228;46.762;23.598;2022-11-18T05:49:54;95788.13;;;5.66;89.15
61359;BME280;47228;46.762;23.598;2022-11-18T05:52:22;95787.59;;;5.69;89.21
61359;BME280;47228;46.762;23.598;2022-11-18T05:54:50;95786.30;;;5.72;89.25
61359;BME280;47228;46.762;23.598;2022-11-18T05:57:18;95787.15;;;5.74;89.11
61359;BME280;47228;46.762;23.598;2022-11-18T05:59:46;95789.50;;;5.73;88.83
61359;BME280;47228;46.762;23.598;2022-11-18T06:02:19;95793.20;;;5.72;89.04
61359;BME280;47228;46.762;23.598;2022-11-18T06:04:56;95802.64;;;5.72;89.31
61359;BME280;47228;46.762;23.598;2022-11-18T06:07:31;95804.61;;;5.74;89.56
61359;BME280;47228;46.762;23.598;2022-11-18T06:10:04;95812.48;;;5.76;89.61
61359;BME280;47228;46.762;23.598;2022-11-18T06:12:38;95818.05;;;5.79;89.42
61359;BME280;47228;46.762;23.598;2022-11-18T06:15:20;95816.27;;;5.79;88.97
61359;BME280;47228;46.762;23.598;2022-11-18T06:17:58;95816.36;;;5.78;88.96
61359;BME280;47228;46.762;23.598;2022-11-18T06:20:27;95819.28;;;5.78;88.84
61359;BME280;47228;46.762;23.598;2022-11-18T06:22:57;95821.64;;;5.76;88.68
61359;BME280;47228;46.762;23.598;2022-11-18T06:25:25;95821.77;;;5.71;88.36
61359;BME280;47228;46.762;23.598;2022-11-18T06:27:55;95821.14;;;5.68;88.59
61359;BME280;47228;46.762;23.598;2022-11-18T06:30:24;95821.80;;;5.65;88.54
61359;BME280;47228;46.762;23.598;2022-11-18T06:32:52;95817.55;;;5.65;88.92
61359;BME280;47228;46.762;23.598;2022-11-18T06:35:19;95819.41;;;5.66;89.13
61359;BME280;47228;46.762;23.598;2022-11-18T06:37:47;95821.02;;;5.67;89.13
61359;BME280;47228;46.762;23.598;2022-11-18T06:40:16;95827.17;;;5.70;89.28
61359;BME280;47228;46.762;23.598;2022-11-18T06:42:44;95822.30;;;5.71;89.29
61359;BME280;47228;46.762;23.598;2022-11-18T06:45:30;95822.64;;;5.71;89.37
61359;BME280;47228;46.762;23.598;2022-11-18T06:47:58;95822.47;;;5.70;89.05
61359;BME280;47228;46.762;23.598;2022-11-18T06:50:30;95819.07;;;5.69;89.21
61359;BME280;47228;46.762;23.598;2022-11-18T06:52:59;95812.19;;;5.69;89.27
61359;BME280;47228;46.762;23.598;2022-11-18T06:55:28;95809.51;;;5.71;89.45
61359;BME280;47228;46.762;23.598;2022-11-18T06:57:56;95819.02;;;5.69;89.09
61359;BME280;47228;46.762;23.598;2022-11-18T07:00:24;95815.96;;;5.67;89.09
61359;BME280;47228;46.762;23.598;2022-11-18T07:02:51;95815.70;;;5.69;89.76
61359;BME280;47228;46.762;23.598;2022-11-18T07:05:19;95813.86;;;5.72;89.78
61359;BME280;47228;46.762;23.598;2022-11-18T07:07:47;95812.64;;;5.75;89.42
61359;BME280;47228;46.762;23.598;2022-11-18T07:10:15;95812.67;;;5.76;89.08
61359;BME280;47228;46.762;23.598;2022-11-18T07:12:43;95810.94;;;5.74;88.93
61359;BME280;47228;46.762;23.598;2022-11-18T07:15:12;95813.77;;;5.74;89.24
61359;BME280;47228;46.762;23.598;2022-11-18T07:17:40;95817.02;;;5.75;89.27
61359;BME280;47228;46.762;23.598;2022-11-18T07:20:08;95814.66;;;5.75;89.00
61359;BME280;47228;46.762;23.598;2022-11-18T07:22:36;95811.79;;;5.76;89.02
61359;BME280;47228;46.762;23.598;2022-11-18T07:25:05;95806.31;;;5.77;89.11
61359;BME280;47228;46.762;23.598;2022-11-18T07:27:33;95801.31;;;5.79;89.35
61359;BME280;47228;46.762;23.598;2022-11-18T07:30:01;95803.92;;;5.84;89.46
61359;BME280;47228;46.762;23.598;2022-11-18T07:32:29;95800.67;;;5.86;89.11
61359;BME280;47228;46.762;23.598;2022-11-18T07:34:59;95797.54;;;5.89;89.45
61359;BME280;47228;46.762;23.598;2022-11-18T07:37:27;95801.17;;;5.94;89.52
61359;BME280;47228;46.762;23.598;2022-11-18T07:39:54;95797.92;;;6.01;89.33
61359;BME280;47228;46.762;23.598;2022-11-18T07:42:22;95797.52;;;6.07;89.20
61359;BME280;47228;46.762;23.598;2022-11-18T07:44:50;95794.48;;;6.13;89.16
61359;BME280;47228;46.762;23.598;2022-11-18T07:47:18;95786.69;;;6.18;89.10
61359;BME280;47228;46.762;23.598;2022-11-18T07:49:46;95781.80;;;6.23;88.68
61359;BME280;47228;46.762;23.598;2022-11-18T07:52:14;95780.88;;;6.27;88.39
61359;BME280;47228;46.762;23.598;2022-11-18T07:54:42;95783.35;;;6.34;88.37
61359;BME280;47228;46.762;23.598;2022-11-18T07:57:10;95782.88;;;6.40;88.35
61359;BME280;47228;46.762;23.598;2022-11-18T07:59:38;95778.48;;;6.45;88.12
61359;BME280;47228;46.762;23.598;2022-11-18T08:02:05;95779.54;;;6.49;87.57
61359;BME280;47228;46.762;23.598;2022-11-18T08:04:36;95780.01;;;6.51;87.11
61359;BME280;47228;46.762;23.598;2022-11-18T08:07:04;95780.95;;;6.54;87.19
61359;BME280;47228;46.762;23.598;2022-11-18T08:09:32;95785.55;;;6.57;87.40
61359;BME280;47228;46.762;23.598;2022-11-18T08:12:00;95793.77;;;6.63;87.30
61359;BME280;47228;46.762;23.598;2022-11-18T08:14:28;95791.93;;;6.70;87.08
61359;BME280;47228;46.762;23.598;2022-11-18T08:16:56;95786.43;;;6.76;87.04
61359;BME280;47228;46.762;23.598;2022-11-18T08:19:24;95780.69;;;6.80;86.49
61359;BME280;47228;46.762;23.598;2022-11-18T08:21:51;95784.89;;;6.81;86.24
61359;BME280;47228;46.762;23.598;2022-11-18T08:24:19;95781.39;;;6.82;86.15
61359;BME280;47228;46.762;23.598;2022-11-18T08:26:47;95780.64;;;6.84;86.23
61359;BME280;47228;46.762;23.598;2022-11-18T08:29:15;95779.81;;;6.86;86.31
61359;BME280;47228;46.762;23.598;2022-11-18T08:31:51;95779.43;;;6.91;86.24
61359;BME280;47228;46.762;23.598;2022-11-18T08:34:19;95777.73;;;6.96;86.08
61359;BME280;47228;46.762;23.598;2022-11-18T08:36:47;95775.98;;;7.00;85.96
61359;BME280;47228;46.762;23.598;2022-11-18T08:39:15;95775.29;;;7.03;85.94
61359;BME280;47228;46.762;23.598;2022-11-18T08:41:43;95774.21;;;7.06;85.85
61359;BME280;47228;46.762;23.598;2022-11-18T08:44:15;95777.23;;;7.08;85.53
61359;BME280;47228;46.762;23.598;2022-11-18T08:46:43;95780.80;;;7.08;85.32
61359;BME280;47228;46.762;23.598;2022-11-18T08:49:14;95782.02;;;7.09;85.48
61359;BME280;47228;46.762;23.598;2022-11-18T08:51:43;95787.35;;;7.11;85.36
61359;BME280;47228;46.762;23.598;2022-11-18T08:54:11;95788.73;;;7.11;85.20
61359;BME280;47228;46.762;23.598;2022-11-18T08:56:39;95788.94;;;7.11;85.22
61359;BME280;47228;46.762;23.598;2022-11-18T08:59:07;95787.00;;;7.14;85.63
61359;BME280;47228;46.762;23.598;2022-11-18T09:01:36;95786.11;;;7.18;85.43
61359;BME280;47228;46.762;23.598;2022-11-18T09:04:04;95788.61;;;7.22;85.31
61359;BME280;47228;46.762;23.598;2022-11-18T09:06:33;95796.36;;;7.28;85.24
61359;BME280;47228;46.762;23.598;2022-11-18T09:09:01;95794.08;;;7.31;85.04
61359;BME280;47228;46.762;23.598;2022-11-18T09:11:34;95787.52;;;7.36;85.14
61359;BME280;47228;46.762;23.598;2022-11-18T09:14:02;95786.33;;;7.41;84.75
61359;BME280;47228;46.762;23.598;2022-11-18T09:16:50;95784.95;;;7.45;84.18
61359;BME280;47228;46.762;23.598;2022-11-18T09:19:18;95782.27;;;7.47;83.77
61359;BME280;47228;46.762;23.598;2022-11-18T09:22:06;95780.65;;;7.50;83.87
61359;BME280;47228;46.762;23.598;2022-11-18T09:24:34;95783.02;;;7.53;83.63
61359;BME280;47228;46.762;23.598;2022-11-18T09:27:04;95776.99;;;7.57;83.73
61359;BME280;47228;46.762;23.598;2022-11-18T09:29:36;95766.89;;;7.61;83.67
61359;BME280;47228;46.762;23.598;2022-11-18T09:32:04;95766.15;;;7.65;83.54
61359;BME280;47228;46.762;23.598;2022-11-18T09:34:33;95767.20;;;7.69;83.49
61359;BME280;47228;46.762;23.598;2022-11-18T09:37:03;95762.11;;;7.72;83.44
61359;BME280;47228;46.762;23.598;2022-11-18T09:39:34;95766.70;;;7.76;83.34
61359;BME280;47228;46.762;23.598;2022-11-18T09:42:22;95770.45;;;7.78;83.23
61359;BME280;47228;46.762;23.598;2022-11-18T09:45:12;95761.75;;;7.81;83.09
61359;BME280;47228;46.762;23.598;2022-11-18T09:47:51;95754.96;;;7.84;82.91
61359;BME280;47228;46.762;23.598;2022-11-18T09:50:20;95751.36;;;7.88;82.97
61359;BME280;47228;46.762;23.598;2022-11-18T09:53:20;95750.14;;;7.93;82.71
61359;BME280;47228;46.762;23.598;2022-11-18T09:55:49;95749.23;;;7.95;82.35
61359;BME280;47228;46.762;23.598;2022-11-18T09:58:31;95750.55;;;7.96;82.42
61359;BME280;47228;46.762;23.598;2022-11-18T10:01:01;95750.19;;;7.99;82.32
61359;BME280;47228;46.762;23.598;2022-11-18T10:03:31;95746.49;;;8.01;82.24
61359;BME280;47228;46.762;23.598;2022-11-18T10:06:09;95743.19;;;8.02;81.94
61359;BME280;47228;46.762;23.598;2022-11-18T10:09:22;95732.02;;;8.01;82.13
61359;BME280;47228;46.762;23.598;2022-11-18T10:22:49;95716.66;;;8.21;82.14
61359;BME280;47228;46.762;23.598;2022-11-18T10:25:19;95722.17;;;8.24;82.08
61359;BME280;47228;46.762;23.598;2022-11-18T10:27:49;95727.81;;;8.25;81.84
61359;BME280;47228;46.762;23.598;2022-11-18T10:30:23;95731.45;;;8.24;81.73
61359;BME280;47228;46.762;23.598;2022-11-18T10:33:03;95733.45;;;8.24;81.63
61359;BME280;47228;46.762;23.598;2022-11-18T10:35:44;95720.19;;;8.27;81.98
61359;BME280;47228;46.762;23.598;2022-11-18T10:40:47;95723.22;;;8.33;82.04
61359;BME280;47228;46.762;23.598;2022-11-18T10:46:22;95712.94;;;8.36;81.72
61359;BME280;47228;46.762;23.598;2022-11-18T10:49:11;95712.72;;;8.36;81.83
61359;BME280;47228;46.762;23.598;2022-11-18T10:51:44;95711.23;;;8.37;81.70
61359;BME280;47228;46.762;23.598;2022-11-18T10:54:21;95709.15;;;8.39;81.55
61359;BME280;47228;46.762;23.598;2022-11-18T10:59:54;95696.89;;;8.40;81.49
61359;BME280;47228;46.762;23.598;2022-11-18T11:02:38;95694.66;;;8.40;81.68
61359;BME280;47228;46.762;23.598;2022-11-18T11:05:19;95691.41;;;8.41;81.88
61359;BME280;47228;46.762;23.598;2022-11-18T11:08:02;95687.51;;;8.44;81.93
61359;BME280;47228;46.762;23.598;2022-11-18T11:10:55;95684.08;;;8.45;81.70
61359;BME280;47228;46.762;23.598;2022-11-18T11:13:28;95675.86;;;8.44;82.12
61359;BME280;47228;46.762;23.598;2022-11-18T11:15:59;95670.04;;;8.44;82.14
61359;BME280;47228;46.762;23.598;2022-11-18T11:18:31;95671.81;;;8.43;82.19
61359;BME280;47228;46.762;23.598;2022-11-18T11:21:21;95668.33;;;8.41;82.11
61359;BME280;47228;46.762;23.598;2022-11-18T11:23:52;95662.66;;;8.40;82.51
61359;BME280;47228;46.762;23.598;2022-11-18T11:26:42;95658.14;;;8.42;82.75
61359;BME280;47228;46.762;23.598;2022-11-18T11:30:04;95656.36;;;8.45;82.76
61359;BME280;47228;46.762;23.598;2022-11-18T11:37:57;95649.86;;;8.46;82.49
61359;BME280;47228;46.762;23.598;2022-11-18T11:40:44;95643.21;;;8.47;82.52
61359;BME280;47228;46.762;23.598;2022-11-18T11:49:16;95622.23;;;8.50;83.47
61359;BME280;47228;46.762;23.598;2022-11-18T11:51:54;95616.22;;;8.51;83.30
61359;BME280;47228;46.762;23.598;2022-11-18T11:54:42;95614.36;;;8.51;83.24
61359;BME280;47228;46.762;23.598;2022-11-18T11:57:50;95617.48;;;8.49;83.25
61359;BME280;47228;46.762;23.598;2022-11-18T12:00:20;95617.46;;;8.48;83.50
61359;BME280;47228;46.762;23.598;2022-11-18T12:05:31;95609.70;;;8.49;83.61
61359;BME280;47228;46.762;23.598;2022-11-18T12:08:07;95605.11;;;8.49;83.62
61359;BME280;47228;46.762;23.598;2022-11-18T12:10:39;95604.38;;;8.49;83.52
61359;BME280;47228;46.762;23.598;2022-11-18T12:18:25;95612.56;;;8.49;83.52
61359;BME280;47228;46.762;23.598;2022-11-18T12:20:56;95609.00;;;8.48;83.51
61359;BME280;47228;46.762;23.598;2022-11-18T12:23:29;95605.02;;;8.45;83.50
61359;BME280;47228;46.762;23.598;2022-11-18T12:26:06;95605.11;;;8.42;83.85
61359;BME280;47228;46.762;23.598;2022-11-18T12:28:37;95601.33;;;8.40;83.63
61359;BME280;47228;46.762;23.598;2022-11-18T12:36:46;95588.01;;;8.41;84.60
61359;BME280;47228;46.762;23.598;2022-11-18T12:41:58;95588.06;;;8.44;85.11
61359;BME280;47228;46.762;23.598;2022-11-18T12:44:47;95585.13;;;8.45;85.09
61359;BME280;47228;46.762;23.598;2022-11-18T12:50:14;95578.89;;;8.45;85.69
61359;BME280;47228;46.762;23.598;2022-11-18T12:55:29;95572.75;;;8.45;85.75
61359;BME280;47228;46.762;23.598;2022-11-18T12:58:01;95570.25;;;8.45;85.78
61359;BME280;47228;46.762;23.598;2022-11-18T13:00:31;95565.46;;;8.45;85.74
61359;BME280;47228;46.762;23.598;2022-11-18T13:03:00;95556.69;;;8.46;86.12
61359;BME280;47228;46.762;23.598;2022-11-18T13:05:34;95553.05;;;8.47;86.39
61359;BME280;47228;46.762;23.598;2022-11-18T13:08:05;95552.14;;;8.46;85.96
61359;BME280;47228;46.762;23.598;2022-11-18T13:13:22;95546.95;;;8.44;86.08
61359;BME280;47228;46.762;23.598;2022-11-18T13:15:53;95541.39;;;8.46;86.48
61359;BME280;47228;46.762;23.598;2022-11-18T13:18:51;95535.55;;;8.48;86.31
61359;BME280;47228;46.762;23.598;2022-11-18T13:21:25;95531.46;;;8.47;86.23
61359;BME280;47228;46.762;23.598;2022-11-18T13:24:17;95530.25;;;8.45;86.15
61359;BME280;47228;46.762;23.598;2022-11-18T13:26:47;95528.21;;;8.43;85.90
61359;BME280;47228;46.762;23.598;2022-11-18T13:32:25;95525.49;;;8.42;86.72
61359;BME280;47228;46.762;23.598;2022-11-18T13:35:06;95524.79;;;8.44;86.72
61359;BME280;47228;46.762;23.598;2022-11-18T13:37:47;95524.17;;;8.44;86.82
61359;BME280;47228;46.762;23.598;2022-11-18T13:40:42;95522.41;;;8.44;86.72
61359;BME280;47228;46.762;23.598;2022-11-18T13:43:31;95525.09;;;8.40;86.76
61359;BME280;47228;46.762;23.598;2022-11-18T13:46:11;95515.20;;;8.40;87.20
61359;BME280;47228;46.762;23.598;2022-11-18T13:48:48;95513.31;;;8.39;87.08
61359;BME280;47228;46.762;23.598;2022-11-18T13:51:19;95510.95;;;8.37;87.06
61359;BME280;47228;46.762;23.598;2022-11-18T13:53:48;95512.88;;;8.35;87.43
61359;BME280;47228;46.762;23.598;2022-11-18T13:56:22;95516.27;;;8.33;87.43
61359;BME280;47228;46.762;23.598;2022-11-18T13:58:56;95511.98;;;8.35;87.63
61359;BME280;47228;46.762;23.598;2022-11-18T14:01:46;95506.48;;;8.37;87.76
61359;BME280;47228;46.762;23.598;2022-11-18T14:04:21;95507.61;;;8.39;87.68
61359;BME280;47228;46.762;23.598;2022-11-18T14:06:50;95506.52;;;8.41;87.72
61359;BME280;47228;46.762;23.598;2022-11-18T14:09:30;95500.89;;;8.42;87.60
61359;BME280;47228;46.762;23.598;2022-11-18T14:14:41;95499.46;;;8.39;87.39
61359;BME280;47228;46.762;23.598;2022-11-18T14:17:25;95499.52;;;8.37;87.52
61359;BME280;47228;46.762;23.598;2022-11-18T14:19:54;95499.99;;;8.34;87.80
61359;BME280;47228;46.762;23.598;2022-11-18T14:22:24;95501.46;;;8.31;87.80
61359;BME280;47228;46.762;23.598;2022-11-18T14:35:31;95490.16;;;8.26;88.08
61359;BME280;47228;46.762;23.598;2022-11-18T14:38:10;95491.89;;;8.22;88.18
61359;BME280;47228;46.762;23.598;2022-11-18T14:41:02;95489.06;;;8.19;88.31
61359;BME280;47228;46.762;23.598;2022-11-18T14:43:30;95482.86;;;8.18;88.48
61359;BME280;47228;46.762;23.598;2022-11-18T14:46:02;95484.11;;;8.17;88.76
61359;BME280;47228;46.762;23.598;2022-11-18T14:48:31;95482.05;;;8.17;88.62
61359;BME280;47228;46.762;23.598;2022-11-18T14:50:59;95479.48;;;8.15;88.67
61359;BME280;47228;46.762;23.598;2022-11-18T14:53:27;95472.95;;;8.14;88.84
61359;BME280;47228;46.762;23.598;2022-11-18T14:55:57;95472.21;;;8.13;89.05
61359;BME280;47228;46.762;23.598;2022-11-18T14:58:26;95469.81;;;8.12;88.85
61359;BME280;47228;46.762;23.598;2022-11-18T15:00:54;95470.23;;;8.11;88.94
61359;BME280;47228;46.762;23.598;2022-11-18T15:03:22;95468.98;;;8.09;88.96
61359;BME280;47228;46.762;23.598;2022-11-18T15:05:50;95466.27;;;8.08;89.39
61359;BME280;47228;46.762;23.598;2022-11-18T15:08:19;95461.53;;;8.07;89.42
61359;BME280;47228;46.762;23.598;2022-11-18T15:10:46;95457.64;;;8.07;89.49
61359;BME280;47228;46.762;23.598;2022-11-18T15:13:14;95452.40;;;8.08;89.47